Time;durP1;ratioP1;P1;durP2;ratioP2;P2;SDS_P1;SDS_P2;PMS_P1;PMS_P2;Temp;Humidity;BMP_temperature;BMP_pressure;BME280_temperature;BME280_humidity;BME280_pressure;Samples;Min_cycle;Max_cycle;Signal;HPM_P1;HPM_P2
2022/08/29 00:02:17;;;;;;;5.40;4.93;;;13.70;99.90;;;;;;2617577;54;20237;-77
2022/08/29 00:05:20;;;;;;;8.60;6.93;;;13.60;99.90;;;;;;2617271;54;20404;-78
2022/08/29 00:07:46;;;;;;;6.50;4.90;;;13.40;99.90;;;;;;2617585;54;20159;-77
2022/08/29 00:13:34;;;;;;;5.17;4.77;;;13.40;99.90;;;;;;2618046;54;20179;-81
2022/08/29 00:19:22;;;;;;;5.50;5.17;;;13.30;99.90;;;;;;2619159;54;20953;-81
2022/08/29 00:25:13;;;;;;;5.63;5.10;;;13.50;99.90;;;;;;2618310;54;20135;-80
2022/08/29 00:31:01;;;;;;;6.97;5.30;;;13.40;99.90;;;;;;2617338;54;20428;-75
2022/08/29 00:36:50;;;;;;;5.00;4.60;;;13.20;99.90;;;;;;2616469;54;20391;-75
2022/08/29 00:42:38;;;;;;;5.83;5.43;;;13.30;99.90;;;;;;2615746;54;20428;-76
2022/08/29 00:48:26;;;;;;;5.80;4.63;;;13.00;99.90;;;;;;2616559;54;20396;-77
2022/08/29 00:54:14;;;;;;;5.77;5.37;;;12.90;99.90;;;;;;2615766;54;20421;-76
2022/08/29 01:00:06;;;;;;;16.53;5.73;;;12.60;99.90;;;;;;2615961;54;20399;-76
2022/08/29 01:05:54;;;;;;;6.47;5.87;;;12.80;99.90;;;;;;2618075;54;20412;-81
2022/08/29 01:15:50;;;;;;;6.47;5.87;;;12.70;99.90;;;;;;2617668;54;20415;-78
2022/08/29 01:34:45;;;;;;;6.00;5.13;;;12.10;99.90;;;;;;2615869;54;20394;-78
2022/08/29 01:40:34;;;;;;;6.67;6.27;;;11.90;99.90;;;;;;2616134;39;20537;-77
2022/08/29 01:53:06;;;;;;;6.10;5.70;;;11.80;99.90;;;;;;2613586;54;20440;-78
2022/08/29 01:58:55;;;;;;;5.23;4.83;;;11.80;99.90;;;;;;2614568;54;20150;-77
2022/08/29 02:04:45;;;;;;;6.20;5.70;;;11.80;99.90;;;;;;2616666;54;20414;-80
2022/08/29 02:10:33;;;;;;;6.07;5.33;;;11.80;99.90;;;;;;2616451;54;20416;-80
2022/08/29 02:16:22;;;;;;;5.87;5.30;;;11.70;99.90;;;;;;2616236;54;20164;-81
2022/08/29 02:22:09;;;;;;;7.30;5.80;;;11.40;99.90;;;;;;2615521;54;20972;-81
2022/08/29 02:27:57;;;;;;;6.60;5.93;;;11.40;99.90;;;;;;2617533;54;20144;-79
2022/08/29 02:33:45;;;;;;;5.57;5.13;;;11.40;99.90;;;;;;2616918;54;20492;-74
2022/08/29 02:39:33;;;;;;;6.57;6.07;;;11.30;99.90;;;;;;2615181;54;20444;-75
2022/08/29 02:45:22;;;;;;;5.80;5.40;;;11.40;99.90;;;;;;2616295;54;20404;-75
2022/08/29 02:51:16;;;;;;;9.80;5.53;;;11.20;99.90;;;;;;2616413;54;20428;-75
2022/08/29 02:57:04;;;;;;;6.23;5.63;;;11.30;99.90;;;;;;2615894;54;20404;-76
2022/08/29 03:02:56;;;;;;;6.50;5.73;;;11.40;99.90;;;;;;2616367;39;20840;-76
2022/08/29 03:08:45;;;;;;;7.10;5.67;;;11.50;99.90;;;;;;2618092;54;20394;-77
2022/08/29 03:11:20;;;;;;;8.27;5.67;;;11.50;99.90;;;;;;2615253;54;20537;-76
2022/08/29 03:13:46;;;;;;;5.87;5.47;;;11.50;99.90;;;;;;2616129;54;20435;-76
2022/08/29 03:19:34;;;;;;;6.03;5.47;;;11.30;99.90;;;;;;2616130;54;20444;-76
2022/08/29 03:25:23;;;;;;;5.27;4.87;;;11.30;99.90;;;;;;2616258;54;20138;-76
2022/08/29 03:31:10;;;;;;;7.80;5.60;;;11.10;99.90;;;;;;2616744;54;20399;-75
2022/08/29 03:36:59;;;;;;;5.63;5.00;;;11.00;99.90;;;;;;2616051;54;20157;-75
2022/08/29 03:42:47;;;;;;;7.43;5.30;;;11.10;99.90;;;;;;2616151;54;20366;-76
2022/08/29 03:48:35;;;;;;;7.03;6.37;;;11.00;99.90;;;;;;2615995;54;20165;-75
2022/08/29 03:54:22;;;;;;;6.33;5.80;;;11.00;99.90;;;;;;2615916;54;20152;-75
2022/08/29 04:00:15;;;;;;;6.47;5.20;;;10.90;99.90;;;;;;2616223;39;20703;-75
2022/08/29 04:06:03;;;;;;;7.17;6.00;;;11.10;99.90;;;;;;2616511;54;20412;-76
2022/08/29 04:15:51;;;;;;;8.43;5.93;;;11.00;99.90;;;;;;2616055;54;20390;-80
2022/08/29 04:21:39;;;;;;;6.40;5.80;;;11.10;99.90;;;;;;2619013;54;20452;-79
2022/08/29 04:27:27;;;;;;;6.27;5.77;;;11.20;99.90;;;;;;2617540;54;20151;-81
2022/08/29 04:33:15;;;;;;;6.43;5.53;;;11.30;99.90;;;;;;2618444;54;20448;-81
2022/08/29 04:39:04;;;;;;;11.30;6.30;;;11.00;99.90;;;;;;2619327;54;20969;-80
2022/08/29 04:44:54;;;;;;;7.60;6.30;;;11.20;99.90;;;;;;2618452;54;20374;-81
2022/08/29 04:50:41;;;;;;;8.50;7.70;;;11.20;99.90;;;;;;2617812;54;20375;-80
2022/08/29 04:56:30;;;;;;;7.73;6.87;;;11.10;99.90;;;;;;2619425;54;20187;-79
2022/08/29 05:02:18;;;;;;;7.50;6.90;;;11.30;99.90;;;;;;2619240;54;20157;-81
2022/08/29 05:08:05;;;;;;;10.77;7.63;;;11.30;99.90;;;;;;2619962;54;20214;-82
2022/08/29 05:11:20;;;;;;;16.90;8.30;;;11.40;99.90;;;;;;2618554;47;20428;-80
2022/08/29 05:13:47;;;;;;;17.90;8.50;;;11.50;99.90;;;;;;2619053;51;20171;-78
2022/08/29 05:19:37;;;;;;;7.70;6.60;;;11.70;99.90;;;;;;2621200;39;20431;-81
2022/08/29 05:25:25;;;;;;;8.43;7.63;;;11.90;99.90;;;;;;2620988;54;20402;-79
2022/08/29 05:31:13;;;;;;;10.57;7.63;;;12.00;99.90;;;;;;2620382;54;20122;-82
2022/08/29 05:37:10;;;;;;;7.80;7.17;;;12.20;99.90;;;;;;2619315;54;20151;-79
2022/08/29 05:42:58;;;;;;;10.93;6.97;;;12.30;99.90;;;;;;2619928;54;20399;-80
2022/08/29 05:48:46;;;;;;;7.47;6.50;;;13.10;99.90;;;;;;2620764;54;20727;-81
2022/08/29 05:54:36;;;;;;;17.40;7.97;;;13.20;99.90;;;;;;2616269;54;20516;-81
2022/08/29 06:00:24;;;;;;;11.03;8.10;;;13.50;99.90;;;;;;2618838;54;20425;-81
2022/08/29 06:06:12;;;;;;;15.47;7.90;;;13.70;99.90;;;;;;2619172;54;20153;-81
2022/08/29 06:22:18;;;;;;;10.93;8.23;;;15.10;99.90;;;;;;2613390;54;20503;-76
2022/08/29 06:28:06;;;;;;;11.27;6.70;;;16.30;99.90;;;;;;2615956;54;21009;-79
2022/08/29 06:33:56;;;;;;;6.73;6.03;;;17.00;99.90;;;;;;2619555;54;20424;-80
2022/08/29 06:39:44;;;;;;;12.73;7.27;;;17.30;99.90;;;;;;2614556;39;21019;-78
2022/08/29 06:45:31;;;;;;;8.70;6.20;;;17.20;99.90;;;;;;2613266;54;20242;-76
2022/08/29 06:51:19;;;;;;;8.17;6.57;;;16.40;99.90;;;;;;2614308;54;21079;-76
2022/08/29 06:57:06;;;;;;;6.63;6.03;;;16.50;99.90;;;;;;2617797;54;20390;-78
2022/08/29 07:02:54;;;;;;;9.73;6.73;;;16.30;99.90;;;;;;2617545;54;20143;-78
2022/08/29 07:08:42;;;;;;;7.40;6.40;;;16.80;99.90;;;;;;2616497;54;20394;-78
2022/08/29 07:11:22;;;;;;;10.63;6.17;;;16.80;99.90;;;;;;2615464;54;21068;-79
2022/08/29 07:13:47;;;;;;;10.10;6.10;;;17.00;99.90;;;;;;2613729;47;20948;-79
2022/08/29 07:19:36;;;;;;;11.23;6.57;;;17.90;99.90;;;;;;2615363;54;20139;-79
2022/08/29 07:25:26;;;;;;;7.40;6.30;;;18.90;93.20;;;;;;2617489;54;20533;-81
2022/08/29 07:31:14;;;;;;;10.63;7.40;;;19.10;92.00;;;;;;2618519;31;20852;-78
2022/08/29 07:37:03;;;;;;;18.87;6.87;;;18.80;93.00;;;;;;2616245;54;20216;-77
2022/08/29 07:42:51;;;;;;;6.63;6.00;;;19.20;81.40;;;;;;2617268;54;20487;-78
2022/08/29 07:48:40;;;;;;;13.03;6.23;;;19.20;85.30;;;;;;2617544;46;20146;-78
2022/08/29 07:54:28;;;;;;;9.03;6.77;;;19.30;76.60;;;;;;2618157;54;20512;-78
2022/08/29 08:00:16;;;;;;;8.33;6.30;;;19.10;85.40;;;;;;2617449;54;20630;-79
2022/08/29 08:06:04;;;;;;;11.27;6.60;;;19.40;66.90;;;;;;2617078;39;20774;-77
2022/08/29 08:22:14;;;;;;;11.33;6.47;;;20.30;54.90;;;;;;2615212;54;20467;-80
2022/08/29 08:28:02;;;;;;;7.70;5.57;;;20.20;39.30;;;;;;2615464;54;20138;-79
2022/08/29 08:33:50;;;;;;;7.43;6.47;;;21.10;27.70;;;;;;2616041;54;20128;-80
2022/08/29 08:39:38;;;;;;;6.70;5.87;;;21.00;24.00;;;;;;2616248;54;20551;-79
2022/08/29 08:51:46;;;;;;;6.10;5.50;;;21.20;24.40;;;;;;2615791;54;21033;-79
2022/08/29 09:11:20;;;;;;;7.77;5.70;;;22.60;17.00;;;;;;2616499;54;20379;-74
2022/08/29 09:36:37;;;;;;;8.47;6.77;;;21.30;17.80;;;;;;2617452;39;20765;-81
2022/08/29 10:01:48;;;;;;;7.00;6.40;;;21.80;16.50;;;;;;2615185;54;20491;-80
2022/08/29 10:07:49;;;;;;;6.30;5.77;;;21.90;14.80;;;;;;2614253;54;20316;-79
2022/08/29 10:14:13;;;;;;;10.40;7.20;;;22.80;13.90;;;;;;2613530;54;20435;-80
2022/08/29 10:23:25;;;;;;;6.93;6.43;;;23.90;8.70;;;;;;2615134;39;20931;-82
2022/08/29 10:42:20;;;;;;;6.90;6.40;;;23.20;10.30;;;;;;2616292;54;20460;-80
2022/08/29 10:48:14;;;;;;;8.30;6.70;;;22.70;12.10;;;;;;2616036;54;20396;-80
2022/08/29 11:17:17;;;;;;;7.10;6.60;;;24.70;6.70;;;;;;2617151;54;20398;-82
2022/08/29 11:42:30;;;;;;;7.80;7.10;;;24.30;6.40;;;;;;2619506;54;20450;-83
2022/08/29 11:52:12;;;;;;;7.17;6.60;;;25.40;1.00;;;;;;2619420;46;20530;-82
2022/08/29 11:54:40;;;;;;;7.93;7.10;;;25.90;3.10;;;;;;2619984;54;20425;-84
2022/08/29 12:00:40;;;;;;;7.10;6.60;;;24.40;2.20;;;;;;2617435;54;20475;-82
2022/08/29 12:16:49;;;;;;;7.20;6.60;;;25.00;1.00;;;;;;2618351;54;20987;-83
2022/08/29 12:22:55;;;;;;;8.80;6.50;;;24.90;1.00;;;;;;2654205;36;20509;-82
2022/08/29 12:28:47;;;;;;;6.83;6.10;;;26.50;1.00;;;;;;2618942;54;20979;-77
2022/08/29 12:34:51;;;;;;;6.63;5.90;;;26.80;1.00;;;;;;2616450;54;20391;-76
2022/08/29 12:47:17;;;;;;;6.00;5.50;;;26.50;1.00;;;;;;2613669;54;20438;-77
2022/08/29 12:59:32;;;;;;;6.23;5.83;;;26.60;1.00;;;;;;2615953;54;20383;-77
2022/08/29 13:05:22;;;;;;;5.63;5.30;;;26.20;1.00;;;;;;2615034;54;20418;-77
2022/08/29 13:11:11;;;;;;;6.50;6.03;;;25.60;1.00;;;;;;2615923;54;20376;-78
2022/08/29 13:16:59;;;;;;;7.00;6.30;;;25.90;1.00;;;;;;2613844;54;20521;-77
2022/08/29 13:22:48;;;;;;;6.53;6.13;;;25.40;1.00;;;;;;2615622;54;20141;-77
2022/08/29 13:28:42;;;;;;;7.50;6.60;;;26.20;1.00;;;;;;2617040;54;20439;-76
2022/08/29 13:34:30;;;;;;;6.80;6.10;;;27.20;1.00;;;;;;2617670;54;20432;-76
2022/08/29 13:40:32;;;;;;;13.57;7.03;;;26.50;1.00;;;;;;2616989;54;20164;-76
2022/08/29 13:46:29;;;;;;;7.20;6.27;;;27.40;1.00;;;;;;2616552;54;20485;-77
2022/08/29 13:52:18;;;;;;;7.37;6.70;;;26.50;1.00;;;;;;2615721;54;20757;-77
2022/08/29 13:58:08;;;;;;;6.73;6.23;;;27.20;1.00;;;;;;2616404;54;20466;-79
2022/08/29 14:03:56;;;;;;;6.53;5.90;;;26.90;1.00;;;;;;2617729;54;20945;-78
2022/08/29 14:09:44;;;;;;;6.73;6.10;;;27.40;1.00;;;;;;2617663;46;20352;-78
2022/08/29 14:18:55;;;;;;;5.83;5.43;;;28.20;1.00;;;;;;2618316;39;21198;-78
2022/08/29 14:24:50;;;;;;;6.63;6.10;;;28.40;1.00;;;;;;2618818;54;20645;-78
2022/08/29 14:30:40;;;;;;;6.37;5.40;;;27.70;1.00;;;;;;2617879;54;20381;-78
2022/08/29 14:36:28;;;;;;;6.80;5.90;;;28.40;1.00;;;;;;2618330;54;20388;-78
2022/08/29 14:42:16;;;;;;;6.13;5.63;;;29.00;1.00;;;;;;2619741;54;20205;-78
2022/08/29 14:48:05;;;;;;;8.10;5.93;;;29.00;1.00;;;;;;2619208;39;20741;-77
2022/08/29 14:53:53;;;;;;;6.73;6.00;;;29.40;1.00;;;;;;2619463;54;20479;-78
2022/08/29 14:59:41;;;;;;;5.73;5.30;;;29.60;1.00;;;;;;2617459;54;20385;-77
2022/08/29 15:05:29;;;;;;;5.90;5.47;;;30.00;1.00;;;;;;2617563;54;20413;-78
2022/08/29 15:11:17;;;;;;;5.67;5.27;;;30.40;1.00;;;;;;2616685;54;20135;-77
2022/08/29 15:14:21;;;;;;;6.50;6.00;;;30.10;1.00;;;;;;2616316;54;20403;-77
2022/08/29 15:20:28;;;;;;;6.80;6.40;;;29.80;1.00;;;;;;2617190;54;20409;-78
2022/08/29 15:26:16;;;;;;;6.40;5.80;;;28.50;1.00;;;;;;2617615;54;20364;-76
2022/08/29 15:32:04;;;;;;;7.00;6.40;;;29.10;1.00;;;;;;2618524;54;20161;-78
2022/08/29 15:37:53;;;;;;;6.23;5.73;;;29.20;1.00;;;;;;2618242;54;20394;-75
2022/08/29 15:43:46;;;;;;;7.10;6.50;;;29.40;1.00;;;;;;2616814;54;20971;-77
2022/08/29 15:49:38;;;;;;;5.77;5.37;;;29.70;1.00;;;;;;2617943;54;20378;-76
2022/08/29 15:55:26;;;;;;;6.40;5.93;;;29.70;1.00;;;;;;2616984;54;20424;-80
2022/08/29 16:01:14;;;;;;;7.33;5.40;;;30.20;1.00;;;;;;2617634;54;20136;-77
2022/08/29 16:07:02;;;;;;;6.60;6.07;;;29.90;1.00;;;;;;2617707;54;20386;-80
2022/08/29 16:12:50;;;;;;;7.63;6.10;;;30.30;1.00;;;;;;2618268;54;20396;-81
2022/08/29 16:15:51;;;;;;;7.13;6.53;;;29.10;1.00;;;;;;2616179;54;20942;-81
2022/08/29 16:18:17;;;;;;;6.73;6.03;;;28.50;1.00;;;;;;2617566;46;20736;-82
2022/08/29 16:24:06;;;;;;;6.07;5.50;;;29.30;1.00;;;;;;2617612;54;20230;-81
2022/08/29 16:29:56;;;;;;;5.60;5.30;;;29.50;1.00;;;;;;2617909;54;20408;-77
2022/08/29 16:35:45;;;;;;;6.60;6.10;;;27.80;1.00;;;;;;2618049;54;20369;-79
2022/08/29 16:41:33;;;;;;;6.60;6.10;;;26.40;1.00;;;;;;2615507;54;20397;-80
2022/08/29 16:47:21;;;;;;;6.37;5.77;;;24.80;1.00;;;;;;2618580;54;20116;-78
2022/08/29 16:53:09;;;;;;;8.10;7.40;;;25.20;1.00;;;;;;2618907;54;20134;-79
2022/08/29 16:59:00;;;;;;;8.10;6.77;;;26.90;1.00;;;;;;2618064;54;20940;-79
2022/08/29 17:04:49;;;;;;;7.10;6.33;;;25.50;1.00;;;;;;2618420;54;20403;-83
2022/08/29 17:20:26;;;;;;;6.33;5.93;;;23.80;2.00;;;;;;2618576;54;20882;-79
2022/08/29 17:26:16;;;;;;;6.87;6.37;;;23.50;2.80;;;;;;2616989;54;20395;-79
2022/08/29 17:32:05;;;;;;;6.00;5.50;;;23.20;3.70;;;;;;2617703;54;21025;-77
2022/08/29 17:37:54;;;;;;;8.40;6.10;;;23.10;4.30;;;;;;2621750;39;20769;-77
2022/08/29 17:43:42;;;;;;;6.53;6.00;;;23.00;4.70;;;;;;2620765;54;20472;-78
2022/08/29 17:49:31;;;;;;;7.20;5.23;;;22.80;4.40;;;;;;2621412;54;20391;-80
2022/08/29 17:52:34;;;;;;;7.10;6.17;;;22.80;4.90;;;;;;2621389;39;21118;-79
2022/08/29 17:55:03;;;;;;;7.43;6.23;;;22.70;5.40;;;;;;2618051;47;20407;-79
2022/08/29 18:00:53;;;;;;;5.90;5.40;;;22.60;5.30;;;;;;2621442;54;20403;-78
2022/08/29 18:06:43;;;;;;;6.50;5.40;;;22.30;6.10;;;;;;2618050;54;20966;-79
2022/08/29 18:12:33;;;;;;;8.57;6.07;;;22.00;8.20;;;;;;2618047;54;20376;-79
2022/08/29 18:15:54;;;;;;;8.20;6.43;;;22.00;8.70;;;;;;2620373;47;20463;-79
2022/08/29 18:18:20;;;;;;;7.40;6.17;;;21.90;8.60;;;;;;2618861;39;20491;-79
2022/08/29 18:24:12;;;;;;;8.13;6.10;;;21.60;10.70;;;;;;2622952;54;20343;-78
2022/08/29 18:30:05;;;;;;;8.50;6.20;;;21.40;11.20;;;;;;2621660;54;20384;-79
2022/08/29 18:35:53;;;;;;;10.53;6.10;;;21.20;12.80;;;;;;2620445;54;20455;-79
2022/08/29 18:41:41;;;;;;;7.67;5.90;;;21.00;14.30;;;;;;2621634;39;20800;-82
2022/08/29 18:47:29;;;;;;;8.60;6.53;;;20.80;15.50;;;;;;2624212;54;20416;-82
2022/08/29 18:53:19;;;;;;;12.33;7.20;;;20.50;17.60;;;;;;2621148;54;20403;-82
2022/08/29 18:59:11;;;;;;;7.00;6.33;;;20.40;20.40;;;;;;2621171;54;20466;-82
2022/08/29 19:04:59;;;;;;;7.63;6.17;;;20.20;22.80;;;;;;2621112;54;20527;-81
2022/08/29 19:10:48;;;;;;;7.40;6.80;;;20.00;25.00;;;;;;2621876;54;20143;-83
2022/08/29 19:26:38;;;;;;;11.83;7.40;;;19.50;32.90;;;;;;2617367;54;20419;-77
2022/08/29 19:32:27;;;;;;;6.70;6.10;;;19.60;32.00;;;;;;2617410;54;20421;-82
2022/08/29 19:38:15;;;;;;;6.63;6.03;;;19.50;32.30;;;;;;2618065;54;20122;-83
2022/08/29 19:44:03;;;;;;;6.63;5.93;;;19.40;32.60;;;;;;2621758;54;20376;-82
2022/08/29 19:49:51;;;;;;;6.63;5.87;;;19.50;31.80;;;;;;2616947;54;20138;-82
2022/08/29 19:55:39;;;;;;;8.13;6.20;;;19.40;30.50;;;;;;2618710;54;20122;-82
2022/08/29 20:01:27;;;;;;;6.10;5.50;;;19.40;33.90;;;;;;2617606;54;20150;-81
2022/08/29 20:07:17;;;;;;;9.90;6.03;;;19.40;34.70;;;;;;2618914;39;20787;-82
2022/08/29 20:13:05;;;;;;;7.30;6.60;;;19.50;31.10;;;;;;2619883;54;20370;-85
2022/08/29 20:15:56;;;;;;;6.70;5.90;;;19.40;30.50;;;;;;2620025;54;20423;-81
2022/08/29 20:18:22;;;;;;;7.50;6.00;;;19.50;30.00;;;;;;2618796;54;20167;-82
2022/08/29 20:24:10;;;;;;;7.33;6.57;;;19.50;28.90;;;;;;2620146;54;20232;-82
2022/08/29 20:29:59;;;;;;;6.63;6.03;;;19.30;33.00;;;;;;2617089;54;20156;-83
2022/08/29 20:41:58;;;;;;;7.27;6.57;;;19.10;36.60;;;;;;2618248;54;20441;-82
2022/08/29 20:47:46;;;;;;;11.30;6.70;;;19.00;40.80;;;;;;2617659;54;20488;-82
2022/08/29 20:53:36;;;;;;;7.17;5.60;;;19.00;41.60;;;;;;2618545;54;20126;-82
2022/08/29 20:59:24;;;;;;;6.90;6.30;;;19.10;41.60;;;;;;2617993;54;21027;-81
2022/08/29 21:11:19;;;;;;;6.97;6.10;;;19.10;44.40;;;;;;2617341;54;20419;-82
2022/08/29 21:20:30;;;;;;;8.10;7.40;;;18.80;51.40;;;;;;2616981;54;20388;-81
2022/08/29 21:26:18;;;;;;;8.30;7.50;;;18.60;56.40;;;;;;2617838;54;20424;-82
2022/08/29 21:32:06;;;;;;;6.53;5.93;;;18.50;63.00;;;;;;2617374;54;20137;-81
2022/08/29 21:37:53;;;;;;;10.00;6.20;;;18.50;67.90;;;;;;2616343;54;20147;-77
2022/08/29 21:43:42;;;;;;;6.47;5.83;;;18.30;77.40;;;;;;2616889;54;20386;-78
2022/08/29 21:49:29;;;;;;;7.30;6.53;;;18.40;79.50;;;;;;2615694;54;20170;-77
2022/08/29 21:55:18;;;;;;;6.83;6.13;;;18.40;84.00;;;;;;2617049;54;20671;-77
2022/08/29 22:01:10;;;;;;;7.07;5.53;;;18.40;87.70;;;;;;2616443;39;20907;-79
2022/08/29 22:06:58;;;;;;;7.20;6.50;;;18.30;92.60;;;;;;2615788;54;20402;-78
2022/08/29 22:12:46;;;;;;;7.80;5.97;;;18.20;95.30;;;;;;2615482;54;20936;-78
2022/08/29 22:18:35;;;;;;;9.50;6.43;;;18.20;97.80;;;;;;2616271;39;20493;-78
2022/08/29 22:24:22;;;;;;;6.80;5.87;;;18.10;99.90;;;;;;2615780;54;20435;-77
2022/08/29 22:30:11;;;;;;;6.63;6.03;;;18.00;99.90;;;;;;2616022;54;20238;-76
2022/08/29 22:35:59;;;;;;;7.57;6.83;;;18.00;99.90;;;;;;2616098;54;20398;-78
2022/08/29 22:41:47;;;;;;;7.70;7.00;;;18.00;99.90;;;;;;2615970;54;20186;-77
2022/08/29 22:47:39;;;;;;;9.00;7.00;;;18.10;99.90;;;;;;2615907;54;20162;-78
2022/08/29 22:53:27;;;;;;;9.57;7.57;;;18.00;99.90;;;;;;2617779;39;20803;-78
2022/08/29 22:59:16;;;;;;;10.40;7.13;;;17.90;99.90;;;;;;2616351;54;20133;-76
2022/08/29 23:05:03;;;;;;;10.30;7.80;;;17.90;99.90;;;;;;2616720;54;20381;-77
2022/08/29 23:10:53;;;;;;;8.33;7.63;;;17.90;99.90;;;;;;2620140;54;20594;-84
2022/08/29 23:20:28;;;;;;;12.03;8.00;;;17.90;99.90;;;;;;2618361;46;20458;-82
2022/08/29 23:26:16;;;;;;;8.43;7.53;;;17.80;99.90;;;;;;2618303;54;20402;-81
2022/08/29 23:32:04;;;;;;;8.80;7.57;;;17.80;99.90;;;;;;2617429;54;20377;-77
2022/08/29 23:37:51;;;;;;;8.90;7.97;;;17.90;99.90;;;;;;2616555;54;20152;-77
2022/08/29 23:43:39;;;;;;;10.57;7.97;;;18.00;99.90;;;;;;2616859;54;20138;-76
2022/08/29 23:49:27;;;;;;;8.70;7.40;;;18.00;99.90;;;;;;2616167;54;20134;-76
2022/08/29 23:52:31;;;;;;;10.27;8.80;;;18.00;99.90;;;;;;2616215;54;20430;-76
2022/08/29 23:54:56;;;;;;;8.50;7.50;;;18.00;99.90;;;;;;2616211;54;20660;-77
